Time,TemperatureF,DewpointF,PressureIn,WindDirection,WindDirectionDegrees,WindSpeedMPH,WindSpeedGustMPH,Humidity,HourlyPrecipIn,Conditions,Clouds,dailyrainin,SoftwareType,DateUTC
2013-03-24 00:00:00,46.2,42.5,29.92,NE,40,5.0,6.0,87,0.00,,---,0.00,VWS V14.01,2013-03-24 04:00:00,
2013-03-24 00:05:00,46.2,42.5,29.92,NE,38,4.0,6.0,87,0.00,,---,0.00,VWS V14.01,2013-03-24 04:05:00,
2013-03-24 00:10:00,46.3,43.0,29.92,NE,35,2.0,6.0,88,0.00,,---,0.00,VWS V14.01,2013-03-24 04:10:00,
2013-03-24 00:15:00,46.2,42.8,29.92,NE,40,2.0,6.0,88,0.00,,---,0.00,VWS V14.01,2013-03-24 04:15:00,
2013-03-24 00:21:00,46.2,42.8,29.92,NE,38,4.0,6.0,88,0.00,,---,0.00,VWS V14.01,2013-03-24 04:21:00,
2013-03-24 00:26:00,46.1,42.8,29.92,NE,38,5.0,6.0,88,0.00,,---,0.00,VWS V14.01,2013-03-24 04:26:00,
2013-03-24 00:31:00,45.7,42.4,29.92,NE,48,5.0,6.0,88,0.00,,---,0.00,VWS V14.01,2013-03-24 04:31:00,
2013-03-24 00:36:00,45.4,42.1,29.92,NE,46,4.0,6.0,88,0.00,,---,0.00,VWS V14.01,2013-03-24 04:36:00,
2013-03-24 00:41:00,45.3,42.0,29.91,NE,55,5.0,6.0,88,0.00,,---,0.00,VWS V14.01,2013-03-24 04:41:00,
2013-03-24 00:46:00,45.4,42.1,29.90,NE,53,6.0,7.0,88,0.00,,---,0.00,VWS V14.01,2013-03-24 04:46:00,
2013-03-24 00:51:00,45.4,42.1,29.91,NE,52,3.0,7.0,88,0.00,,---,0.00,VWS V14.01,2013-03-24 04:51:00,
2013-03-24 00:56:00,45.4,42.1,29.91,NE,52,4.0,7.0,88,0.00,,---,0.00,VWS V14.01,2013-03-24 04:56:00,
2013-03-24 01:01:00,45.5,42.5,29.91,NE,55,5.0,6.0,89,0.00,,---,0.00,VWS V14.01,2013-03-24 05:01:00,
2013-03-24 01:06:00,45.6,42.5,29.91,ENE,61,3.0,6.0,89,0.00,,---,0.00,VWS V14.01,2013-03-24 05:06:00,
2013-03-24 01:11:00,45.9,42.8,29.91,ENE,61,3.0,6.0,89,0.00,,---,0.00,VWS V14.01,2013-03-24 05:11:00,
2013-03-24 01:18:00,45.9,42.5,29.91,ENE,61,2.0,6.0,88,0.00,,---,0.00,VWS V14.01,2013-03-24 05:18:00,
2013-03-24 01:23:00,45.9,42.5,29.91,ENE,61,2.0,6.0,88,0.00,,---,0.00,VWS V14.01,2013-03-24 05:23:00,
2013-03-24 01:28:00,46.0,42.7,29.91,ENE,61,0.0,0.0,88,0.00,,---,0.00,VWS V14.01,2013-03-24 05:28:00,
2013-03-24 01:33:00,46.0,43.8,29.91,ENE,61,1.0,2.0,92,0.00,,---,0.00,VWS V14.01,2013-03-24 05:33:00,
2013-03-24 01:40:00,46.7,43.3,29.90,NE,34,3.0,4.0,88,0.00,,---,0.00,VWS V14.01,2013-03-24 05:40:00,
2013-03-24 01:45:00,46.5,43.1,29.90,NNE,33,3.0,4.0,88,0.00,,---,0.00,VWS V14.01,2013-03-24 05:45:00,
2013-03-24 01:50:00,46.5,43.1,29.89,NNE,33,2.0,4.0,88,0.00,,---,0.00,VWS V14.01,2013-03-24 05:50:00,
2013-03-24 01:55:00,46.5,43.1,29.89,NNE,33,1.0,4.0,88,0.00,,---,0.00,VWS V14.01,2013-03-24 05:55:00,
2013-03-24 02:01:00,46.4,43.0,29.89,NNE,33,4.0,4.0,88,0.00,,---,0.00,VWS V14.01,2013-03-24 06:01:00,
2013-03-24 02:06:00,46.3,43.0,29.89,NE,44,2.0,4.0,88,0.00,,---,0.00,VWS V14.01,2013-03-24 06:06:00,
2013-03-24 02:14:00,46.4,43.0,29.89,NE,47,3.0,4.0,88,0.00,,---,0.00,VWS V14.01,2013-03-24 06:14:00,
2013-03-24 02:19:00,46.2,42.8,29.89,ENE,70,3.0,4.0,88,0.00,,---,0.00,VWS V14.01,2013-03-24 06:19:00,
2013-03-24 02:24:00,46.2,42.8,29.89,ENE,70,2.0,4.0,88,0.00,,---,0.00,VWS V14.01,2013-03-24 06:24:00,
2013-03-24 02:30:00,46.3,43.0,29.89,ENE,70,3.0,4.0,88,0.00,,---,0.00,VWS V14.01,2013-03-24 06:30:00,
2013-03-24 02:35:00,46.6,43.2,29.89,ENE,71,3.0,5.0,88,0.00,,---,0.00,VWS V14.01,2013-03-24 06:35:00,
2013-03-24 02:40:00,46.9,43.5,29.89,ENE,73,3.0,5.0,88,0.00,,---,0.00,VWS V14.01,2013-03-24 06:40:00,
2013-03-24 02:45:00,47.3,43.9,29.89,ENE,76,2.0,5.0,88,0.00,,---,0.00,VWS V14.01,2013-03-24 06:45:00,
2013-03-24 02:50:00,47.8,44.4,29.89,East,84,3.0,6.0,88,0.00,,---,0.00,VWS V14.01,2013-03-24 06:50:00,
2013-03-24 02:55:00,48.3,44.9,29.89,East,86,4.0,6.0,88,0.00,,---,0.00,VWS V14.01,2013-03-24 06:55:00,
2013-03-24 03:00:00,48.9,45.5,29.89,NE,49,2.0,4.0,88,0.00,,---,0.00,VWS V14.01,2013-03-24 07:00:00,
2013-03-24 03:05:00,48.3,44.6,29.89,NNE,19,3.0,4.0,87,0.00,,---,0.00,VWS V14.01,2013-03-24 07:05:00,
2013-03-24 03:10:00,47.9,44.2,29.89,NNE,26,4.0,4.0,87,0.00,,---,0.00,VWS V14.01,2013-03-24 07:10:00,
2013-03-24 03:15:00,48.0,44.6,29.89,NE,39,3.0,5.0,88,0.00,,---,0.00,VWS V14.01,2013-03-24 07:15:00,
2013-03-24 03:20:00,48.1,44.7,29.89,NE,40,5.0,6.0,88,0.00,,---,0.00,VWS V14.01,2013-03-24 07:20:00,
2013-03-24 03:25:00,48.2,44.5,29.88,NE,49,5.0,7.0,87,0.00,,---,0.00,VWS V14.01,2013-03-24 07:25:00,
2013-03-24 03:30:00,48.3,44.6,29.88,NE,56,6.0,7.0,87,0.00,,---,0.00,VWS V14.01,2013-03-24 07:30:00,
2013-03-24 03:35:00,48.5,44.8,29.87,ENE,61,5.0,7.0,87,0.00,,---,0.00,VWS V14.01,2013-03-24 07:35:00,
2013-03-24 03:40:00,48.7,45.0,29.87,ENE,70,4.0,8.0,87,0.00,,---,0.00,VWS V14.01,2013-03-24 07:40:00,
2013-03-24 03:45:00,48.8,45.1,29.88,ENE,71,8.0,9.0,87,0.00,,---,0.00,VWS V14.01,2013-03-24 07:45:00,
2013-03-24 03:50:00,48.6,44.9,29.87,East,79,5.0,10.0,87,0.00,,---,0.00,VWS V14.01,2013-03-24 07:50:00,
2013-03-24 03:55:00,48.7,45.0,29.88,ENE,71,6.0,10.0,87,0.00,,---,0.00,VWS V14.01,2013-03-24 07:55:00,
2013-03-24 04:01:00,49.0,45.3,29.88,ENE,65,5.0,7.0,87,0.00,,---,0.00,VWS V14.01,2013-03-24 08:01:00,
2013-03-24 04:06:00,49.2,45.5,29.88,ENE,66,4.0,7.0,87,0.00,,---,0.00,VWS V14.01,2013-03-24 08:06:00,
2013-03-24 04:11:00,49.0,45.0,29.88,ENE,57,6.0,9.0,86,0.00,,---,0.00,VWS V14.01,2013-03-24 08:11:00,
2013-03-24 04:16:00,48.9,44.9,29.88,ENE,57,4.0,9.0,86,0.00,,---,0.00,VWS V14.01,2013-03-24 08:16:00,
2013-03-24 04:21:00,49.0,44.7,29.87,ENE,74,5.0,9.0,85,0.00,,---,0.00,VWS V14.01,2013-03-24 08:21:00,
2013-03-24 04:26:00,49.0,44.7,29.86,East,81,6.0,9.0,85,0.00,,---,0.00,VWS V14.01,2013-03-24 08:26:00,
2013-03-24 04:31:00,48.9,44.6,29.86,ENE,72,7.0,10.0,85,0.00,,---,0.00,VWS V14.01,2013-03-24 08:31:00,
2013-03-24 04:36:00,48.7,44.1,29.85,East,84,8.0,11.0,84,0.00,,---,0.00,VWS V14.01,2013-03-24 08:36:00,
2013-03-24 04:41:00,48.8,44.2,29.84,ENE,59,8.0,12.0,84,0.00,,---,0.00,VWS V14.01,2013-03-24 08:41:00,
2013-03-24 04:47:00,49.0,44.1,29.84,ENE,77,5.0,12.0,83,0.00,,---,0.00,VWS V14.01,2013-03-24 08:47:00,
2013-03-24 04:52:00,49.0,44.1,29.84,East,83,10.0,12.0,83,0.00,,---,0.00,VWS V14.01,2013-03-24 08:52:00,
2013-03-24 04:57:00,49.2,44.0,29.83,East,94,9.0,13.0,82,0.00,,---,0.00,VWS V14.01,2013-03-24 08:57:00,
2013-03-24 05:02:00,49.2,44.0,29.82,East,85,7.0,13.0,82,0.00,,---,0.00,VWS V14.01,2013-03-24 09:02:00,
2013-03-24 05:07:00,49.1,43.5,29.82,ENE,77,13.0,13.0,81,0.00,,---,0.00,VWS V14.01,2013-03-24 09:07:00,
2013-03-24 05:12:00,49.1,43.2,29.81,ENE,75,14.0,15.0,80,0.00,,---,0.00,VWS V14.01,2013-03-24 09:12:00,
2013-03-24 05:17:00,49.1,43.2,29.81,ENE,76,14.0,17.0,80,0.00,,---,0.00,VWS V14.01,2013-03-24 09:17:00,
2013-03-24 05:22:00,49.1,43.2,29.82,ENE,77,8.0,19.0,80,0.00,,---,0.00,VWS V14.01,2013-03-24 09:22:00,
2013-03-24 05:27:00,49.4,43.5,29.83,East,87,10.0,19.0,80,0.00,,---,0.00,VWS V14.01,2013-03-24 09:27:00,
2013-03-24 05:32:00,49.6,43.7,29.84,East,79,7.0,15.0,80,0.00,,---,0.00,VWS V14.01,2013-03-24 09:32:00,
2013-03-24 05:37:00,49.7,43.5,29.83,ENE,61,10.0,15.0,79,0.00,,---,0.00,VWS V14.01,2013-03-24 09:37:00,
2013-03-24 05:42:00,49.7,43.5,29.84,ENE,63,10.0,16.0,79,0.00,,---,0.00,VWS V14.01,2013-03-24 09:42:00,
2013-03-24 05:47:00,49.6,43.0,29.83,ENE,70,12.0,16.0,78,0.00,,---,0.00,VWS V14.01,2013-03-24 09:47:00,
2013-03-24 05:52:00,49.6,42.4,29.83,East,90,12.0,18.0,76,0.00,,---,0.00,VWS V14.01,2013-03-24 09:52:00,
2013-03-24 05:57:00,49.7,42.1,29.83,East,84,10.0,18.0,75,0.00,,---,0.00,VWS V14.01,2013-03-24 09:57:00,
2013-03-24 06:03:00,49.6,42.0,29.83,East,97,12.0,16.0,75,0.01,,---,0.01,VWS V14.01,2013-03-24 10:03:00,
2013-03-24 06:08:00,49.3,41.7,29.83,East,83,13.0,16.0,75,0.01,,---,0.01,VWS V14.01,2013-03-24 10:08:00,
2013-03-24 06:13:00,49.2,42.0,29.81,ESE,117,15.0,16.0,76,0.02,,---,0.02,VWS V14.01,2013-03-24 10:13:00,
2013-03-24 06:18:00,49.4,42.8,29.79,East,82,13.0,23.0,78,0.02,,---,0.02,VWS V14.01,2013-03-24 10:18:00,
2013-03-24 06:23:00,49.5,42.9,29.78,ESE,109,12.0,23.0,78,0.02,,---,0.02,VWS V14.01,2013-03-24 10:23:00,
2013-03-24 06:28:00,49.5,42.9,29.79,East,96,20.0,20.0,78,0.02,,---,0.02,VWS V14.01,2013-03-24 10:28:00,
2013-03-24 06:33:00,49.4,43.2,29.80,East,94,20.0,24.0,79,0.03,,---,0.03,VWS V14.01,2013-03-24 10:33:00,
2013-03-24 06:38:00,49.5,43.3,29.81,East,85,19.0,24.0,79,0.03,,---,0.03,VWS V14.01,2013-03-24 10:38:00,
2013-03-24 06:43:00,49.5,43.6,29.80,East,83,17.0,24.0,80,0.03,,---,0.03,VWS V14.01,2013-03-24 10:43:00,
2013-03-24 06:48:00,49.6,44.0,29.79,East,91,16.0,24.0,81,0.03,,---,0.03,VWS V14.01,2013-03-24 10:48:00,
2013-03-24 06:53:00,49.9,44.6,29.79,East,82,18.0,25.0,82,0.03,,---,0.03,VWS V14.01,2013-03-24 10:53:00,
2013-03-24 06:58:00,50.0,44.4,29.80,ESE,111,17.0,21.0,81,0.04,,---,0.04,VWS V14.01,2013-03-24 10:58:00,
2013-03-24 07:03:00,49.9,44.0,29.80,East,96,13.0,23.0,80,0.05,,---,0.05,VWS V14.01,2013-03-24 11:03:00,
2013-03-24 07:08:00,49.9,44.3,29.80,East,92,15.0,23.0,81,0.06,,---,0.06,VWS V14.01,2013-03-24 11:08:00,
2013-03-24 07:13:00,49.6,44.3,29.80,East,80,14.0,23.0,82,0.07,,---,0.07,VWS V14.01,2013-03-24 11:13:00,
2013-03-24 07:19:00,49.3,44.4,29.80,ENE,77,8.0,23.0,83,0.10,,---,0.10,VWS V14.01,2013-03-24 11:19:00,
2013-03-24 07:24:00,48.8,44.2,29.80,ENE,67,11.0,23.0,84,0.12,,---,0.12,VWS V14.01,2013-03-24 11:24:00,
2013-03-24 07:29:00,48.5,44.2,29.80,East,92,11.0,15.0,85,0.11,,---,0.13,VWS V14.01,2013-03-24 11:29:00,
2013-03-24 07:34:00,48.2,44.2,29.80,East,88,12.0,21.0,86,0.12,,---,0.14,VWS V14.01,2013-03-24 11:34:00,
2013-03-24 07:39:00,47.8,43.8,29.80,East,82,8.0,21.0,86,0.12,,---,0.14,VWS V14.01,2013-03-24 11:39:00,
2013-03-24 07:44:00,47.4,43.7,29.80,East,79,12.0,21.0,87,0.14,,---,0.16,VWS V14.01,2013-03-24 11:44:00,
2013-03-24 07:49:00,47.2,43.8,29.80,East,90,13.0,21.0,88,0.15,,---,0.17,VWS V14.01,2013-03-24 11:49:00,
2013-03-24 07:54:00,47.2,44.1,29.79,East,94,11.0,21.0,89,0.16,,---,0.18,VWS V14.01,2013-03-24 11:54:00,
2013-03-24 07:59:00,47.2,44.1,29.79,ENE,69,18.0,19.0,89,0.16,,---,0.20,VWS V14.01,2013-03-24 11:59:00,
2013-03-24 08:04:00,47.2,44.1,29.79,ENE,75,16.0,19.0,89,0.16,,---,0.20,VWS V14.01,2013-03-24 12:04:00,
2013-03-24 08:09:00,47.3,44.5,29.80,ENE,76,12.0,19.0,90,0.17,,---,0.21,VWS V14.01,2013-03-24 12:09:00,
2013-03-24 08:14:00,47.3,44.5,29.80,East,81,14.0,20.0,90,0.18,,---,0.22,VWS V14.01,2013-03-24 12:14:00,
2013-03-24 08:19:00,47.2,44.7,29.80,NE,49,13.0,20.0,91,0.20,,---,0.24,VWS V14.01,2013-03-24 12:19:00,
2013-03-24 08:24:00,47.3,44.8,29.80,East,85,13.0,20.0,91,0.21,,---,0.25,VWS V14.01,2013-03-24 12:24:00,
2013-03-24 08:29:00,47.2,44.7,29.80,ENE,72,15.0,20.0,91,0.14,,---,0.27,VWS V14.01,2013-03-24 12:29:00,
2013-03-24 08:34:00,47.0,44.5,29.79,East,95,11.0,20.0,91,0.15,,---,0.28,VWS V14.01,2013-03-24 12:34:00,
2013-03-24 08:39:00,46.9,44.4,29.78,East,80,13.0,22.0,91,0.17,,---,0.30,VWS V14.01,2013-03-24 12:39:00,
2013-03-24 08:44:00,46.9,44.7,29.79,East,79,12.0,22.0,92,0.19,,---,0.32,VWS V14.01,2013-03-24 12:44:00,
2013-03-24 08:50:00,46.8,44.6,29.79,ENE,72,15.0,22.0,92,0.21,,---,0.34,VWS V14.01,2013-03-24 12:50:00,
2013-03-24 08:55:00,46.9,44.7,29.79,ENE,57,6.0,22.0,92,0.23,,---,0.36,VWS V14.01,2013-03-24 12:55:00,
2013-03-24 09:00:00,46.9,44.7,29.78,East,94,11.0,18.0,92,0.20,,---,0.40,VWS V14.01,2013-03-24 13:00:00,
2013-03-24 09:05:00,46.9,44.7,29.78,East,90,17.0,22.0,92,0.24,,---,0.44,VWS V14.01,2013-03-24 13:05:00,
2013-03-24 09:10:00,46.8,44.9,29.78,East,94,17.0,22.0,93,0.27,,---,0.47,VWS V14.01,2013-03-24 13:10:00,
2013-03-24 09:15:00,47.2,45.3,29.78,East,80,13.0,23.0,93,0.29,,---,0.49,VWS V14.01,2013-03-24 13:15:00,
2013-03-24 09:20:00,47.3,45.4,29.77,ESE,112,20.0,26.0,93,0.32,,---,0.52,VWS V14.01,2013-03-24 13:20:00,
2013-03-24 09:25:00,47.4,45.5,29.76,East,79,15.0,27.0,93,0.33,,---,0.53,VWS V14.01,2013-03-24 13:25:00,
2013-03-24 09:30:00,47.3,45.4,29.76,East,84,18.0,23.0,93,0.29,,---,0.55,VWS V14.01,2013-03-24 13:30:00,
2013-03-24 09:35:00,47.4,45.5,29.77,East,92,19.0,24.0,93,0.31,,---,0.57,VWS V14.01,2013-03-24 13:35:00,
2013-03-24 09:40:00,47.4,45.5,29.76,ESE,120,16.0,26.0,93,0.32,,---,0.58,VWS V14.01,2013-03-24 13:40:00,
2013-03-24 09:45:00,47.4,45.8,29.76,East,80,14.0,26.0,94,0.34,,---,0.60,VWS V14.01,2013-03-24 13:45:00,
2013-03-24 09:50:00,47.6,46.0,29.78,ENE,67,14.0,26.0,94,0.35,,---,0.61,VWS V14.01,2013-03-24 13:50:00,
2013-03-24 09:55:00,47.4,45.8,29.78,East,83,12.0,26.0,94,0.38,,---,0.64,VWS V14.01,2013-03-24 13:55:00,
2013-03-24 10:00:00,47.0,45.4,29.78,East,90,15.0,19.0,94,0.27,,---,0.65,VWS V14.01,2013-03-24 14:00:00,
2013-03-24 10:05:00,46.8,45.2,29.77,East,92,20.0,22.0,94,0.29,,---,0.67,VWS V14.01,2013-03-24 14:05:00,
2013-03-24 10:10:00,46.7,45.1,29.76,East,92,21.0,22.0,94,0.32,,---,0.70,VWS V14.01,2013-03-24 14:10:00,
2013-03-24 10:15:00,47.0,45.4,29.76,East,86,12.0,25.0,94,0.34,,---,0.72,VWS V14.01,2013-03-24 14:15:00,
2013-03-24 10:21:00,47.3,45.7,29.74,East,92,23.0,25.0,94,0.36,,---,0.74,VWS V14.01,2013-03-24 14:21:00,
2013-03-24 10:26:00,47.5,46.1,29.74,ESE,107,14.0,25.0,95,0.38,,---,0.76,VWS V14.01,2013-03-24 14:26:00,
2013-03-24 10:31:00,47.7,46.3,29.74,ESE,106,23.0,23.0,95,0.24,,---,0.78,VWS V14.01,2013-03-24 14:31:00,
2013-03-24 10:36:00,47.8,46.4,29.74,East,88,17.0,24.0,95,0.26,,---,0.80,VWS V14.01,2013-03-24 14:36:00,
2013-03-24 10:41:00,48.1,46.7,29.73,ESE,108,21.0,24.0,95,0.28,,---,0.82,VWS V14.01,2013-03-24 14:41:00,
2013-03-24 10:46:00,48.3,46.9,29.68,East,96,35.0,37.0,95,0.30,,---,0.84,VWS V14.01,2013-03-24 14:46:00,
2013-03-24 10:51:00,48.7,47.3,29.64,SE,129,21.0,40.0,95,0.31,,---,0.85,VWS V14.01,2013-03-24 14:51:00,
2013-03-24 10:56:00,49.2,47.8,29.61,SE,136,22.0,40.0,95,0.33,,---,0.87,VWS V14.01,2013-03-24 14:56:00,
2013-03-24 11:01:00,49.6,48.2,29.58,SE,130,40.0,45.0,95,0.22,,---,0.87,VWS V14.01,2013-03-24 15:01:00,
2013-03-24 11:06:00,50.1,49.0,29.52,ESE,121,49.0,49.0,96,0.23,,---,0.88,VWS V14.01,2013-03-24 15:06:00,
2013-03-24 11:12:00,50.5,49.4,29.58,ESE,112,18.0,50.0,96,0.24,,---,0.89,VWS V14.01,2013-03-24 15:12:00,
2013-03-24 11:17:00,51.0,49.9,29.58,ESE,116,27.0,50.0,96,0.24,,---,0.89,VWS V14.01,2013-03-24 15:17:00,
2013-03-24 11:22:00,51.4,50.3,29.58,ESE,115,22.0,50.0,96,0.24,,---,0.89,VWS V14.01,2013-03-24 15:22:00,
2013-03-24 11:27:00,52.2,51.1,29.58,SE,142,33.0,50.0,96,0.24,,---,0.89,VWS V14.01,2013-03-24 15:27:00,
2013-03-24 11:32:00,52.9,51.8,29.57,ESE,122,33.0,40.0,96,0.12,,---,0.89,VWS V14.01,2013-03-24 15:32:00,
2013-03-24 11:37:00,53.4,52.3,29.57,SE,128,33.0,41.0,96,0.12,,---,0.89,VWS V14.01,2013-03-24 15:37:00,
2013-03-24 11:42:00,53.6,52.5,29.57,SSE,155,24.0,41.0,96,0.12,,---,0.89,VWS V14.01,2013-03-24 15:42:00,
2013-03-24 11:47:00,53.9,52.8,29.56,ESE,108,27.0,44.0,96,0.12,,---,0.89,VWS V14.01,2013-03-24 15:47:00,
2013-03-24 11:52:00,54.2,53.1,29.57,ESE,108,17.0,44.0,96,0.12,,---,0.89,VWS V14.01,2013-03-24 15:52:00,
2013-03-24 11:57:00,54.6,53.5,29.57,ESE,113,25.0,44.0,96,0.12,,---,0.89,VWS V14.01,2013-03-24 15:57:00,
2013-03-24 12:03:00,55.0,53.6,29.58,ESE,111,34.0,34.0,95,0.02,,---,0.89,VWS V14.01,2013-03-24 16:03:00,
2013-03-24 12:08:00,55.3,53.9,29.59,ESE,103,30.0,39.0,95,0.02,,---,0.89,VWS V14.01,2013-03-24 16:08:00,
2013-03-24 12:13:00,55.5,54.1,29.58,ESE,118,24.0,40.0,95,0.02,,---,0.89,VWS V14.01,2013-03-24 16:13:00,
2013-03-24 12:18:00,55.4,54.0,29.57,East,90,14.0,40.0,95,0.02,,---,0.89,VWS V14.01,2013-03-24 16:18:00,
2013-03-24 12:23:00,55.3,53.6,29.58,ESE,119,18.0,40.0,94,0.02,,---,0.89,VWS V14.01,2013-03-24 16:23:00,
2013-03-24 12:28:00,55.4,53.7,29.58,East,101,19.0,25.0,94,0.00,,---,0.89,VWS V14.01,2013-03-24 16:28:00,
2013-03-24 12:33:00,55.4,53.7,29.56,ESE,112,21.0,30.0,94,0.00,,---,0.89,VWS V14.01,2013-03-24 16:33:00,
2013-03-24 12:38:00,55.4,53.7,29.55,East,96,26.0,31.0,94,0.00,,---,0.89,VWS V14.01,2013-03-24 16:38:00,
2013-03-24 12:43:00,55.4,54.0,29.55,East,96,29.0,32.0,95,0.00,,---,0.89,VWS V14.01,2013-03-24 16:43:00,
2013-03-24 12:48:00,55.5,54.1,29.55,ESE,112,23.0,32.0,95,0.00,,---,0.89,VWS V14.01,2013-03-24 16:48:00,
2013-03-24 12:53:00,55.5,54.1,29.54,ESE,107,19.0,32.0,95,0.00,,---,0.89,VWS V14.01,2013-03-24 16:53:00,
2013-03-24 12:58:00,55.5,54.1,29.54,East,101,19.0,21.0,95,0.00,,---,0.89,VWS V14.01,2013-03-24 16:58:00,
2013-03-24 13:03:00,55.5,54.1,29.53,East,97,21.0,29.0,95,0.00,,---,0.89,VWS V14.01,2013-03-24 17:03:00,
2013-03-24 13:08:00,55.5,54.1,29.53,ESE,111,25.0,29.0,95,0.00,,---,0.89,VWS V14.01,2013-03-24 17:08:00,
2013-03-24 13:14:00,55.5,54.1,29.52,SE,128,20.0,29.0,95,0.00,,---,0.89,VWS V14.01,2013-03-24 17:14:00,
2013-03-24 13:19:00,55.4,54.0,29.52,East,87,16.0,29.0,95,0.00,,---,0.89,VWS V14.01,2013-03-24 17:19:00,
2013-03-24 13:24:00,55.4,54.0,29.52,ESE,111,15.0,29.0,95,0.00,,---,0.89,VWS V14.01,2013-03-24 17:24:00,
2013-03-24 13:29:00,55.4,54.0,29.50,East,86,15.0,18.0,95,0.00,,---,0.89,VWS V14.01,2013-03-24 17:29:00,
2013-03-24 13:34:00,55.3,53.9,29.50,East,90,16.0,24.0,95,0.00,,---,0.89,VWS V14.01,2013-03-24 17:34:00,
2013-03-24 13:39:00,55.2,53.8,29.50,East,91,13.0,24.0,95,0.00,,---,0.89,VWS V14.01,2013-03-24 17:39:00,
2013-03-24 13:44:00,55.1,53.7,29.49,East,88,15.0,25.0,95,0.00,,---,0.89,VWS V14.01,2013-03-24 17:44:00,
2013-03-24 13:49:00,55.1,53.7,29.48,East,82,22.0,27.0,95,0.00,,---,0.89,VWS V14.01,2013-03-24 17:49:00,
2013-03-24 13:54:00,55.0,53.6,29.49,ESE,105,15.0,27.0,95,0.00,,---,0.89,VWS V14.01,2013-03-24 17:54:00,
2013-03-24 13:59:00,55.0,53.6,29.50,ENE,76,13.0,19.0,95,0.00,,---,0.89,VWS V14.01,2013-03-24 17:59:00,
2013-03-24 14:04:00,55.0,53.6,29.50,ESE,121,16.0,23.0,95,0.00,,---,0.89,VWS V14.01,2013-03-24 18:04:00,
2013-03-24 14:09:00,55.1,53.7,29.49,ESE,102,11.0,24.0,95,0.00,,---,0.89,VWS V14.01,2013-03-24 18:09:00,
2013-03-24 14:14:00,55.0,53.6,29.48,ENE,76,21.0,34.0,95,0.00,,---,0.89,VWS V14.01,2013-03-24 18:14:00,
2013-03-24 14:19:00,55.1,53.7,29.49,ESE,105,11.0,34.0,95,0.00,,---,0.89,VWS V14.01,2013-03-24 18:19:00,
2013-03-24 14:25:00,55.0,53.6,29.50,East,92,13.0,34.0,95,0.00,,---,0.89,VWS V14.01,2013-03-24 18:25:00,
2013-03-24 14:30:00,55.0,53.6,29.48,East,79,4.0,9.0,95,0.00,,---,0.89,VWS V14.01,2013-03-24 18:30:00,
2013-03-24 14:35:00,55.0,53.6,29.48,East,89,16.0,19.0,95,0.00,,---,0.89,VWS V14.01,2013-03-24 18:35:00,
2013-03-24 14:40:00,55.3,53.9,29.48,East,96,11.0,31.0,95,0.00,,---,0.89,VWS V14.01,2013-03-24 18:40:00,
2013-03-24 14:45:00,55.4,54.0,29.48,ESE,117,17.0,31.0,95,0.00,,---,0.89,VWS V14.01,2013-03-24 18:45:00,
2013-03-24 14:50:00,55.3,53.9,29.48,East,90,23.0,31.0,95,0.00,,---,0.89,VWS V14.01,2013-03-24 18:50:00,
2013-03-24 14:55:00,55.4,54.0,29.48,ESE,111,20.0,31.0,95,0.00,,---,0.89,VWS V14.01,2013-03-24 18:55:00,
2013-03-24 15:00:00,55.4,54.0,29.48,East,92,15.0,24.0,95,0.00,,---,0.89,VWS V14.01,2013-03-24 19:00:00,
2013-03-24 15:05:00,55.3,53.9,29.48,East,91,12.0,24.0,95,0.00,,---,0.89,VWS V14.01,2013-03-24 19:05:00,
2013-03-24 15:10:00,55.4,54.0,29.47,ESE,104,15.0,31.0,95,0.00,,---,0.89,VWS V14.01,2013-03-24 19:10:00,
2013-03-24 15:15:00,55.5,54.1,29.47,NE,49,11.0,31.0,95,0.00,,---,0.89,VWS V14.01,2013-03-24 19:15:00,
2013-03-24 15:20:00,55.4,54.0,29.46,East,92,11.0,31.0,95,0.01,,---,0.90,VWS V14.01,2013-03-24 19:20:00,
2013-03-24 15:26:00,55.7,54.3,29.46,East,86,13.0,31.0,95,0.01,,---,0.90,VWS V14.01,2013-03-24 19:26:00,
2013-03-24 15:31:00,55.6,54.2,29.46,East,100,11.0,16.0,95,0.01,,---,0.90,VWS V14.01,2013-03-24 19:31:00,
2013-03-24 15:36:00,55.7,54.3,29.45,ENE,76,15.0,21.0,95,0.01,,---,0.90,VWS V14.01,2013-03-24 19:36:00,
2013-03-24 15:41:00,55.8,54.4,29.44,ESE,103,22.0,27.0,95,0.01,,---,0.90,VWS V14.01,2013-03-24 19:41:00,
2013-03-24 15:46:00,55.8,54.4,29.44,ESE,111,11.0,27.0,95,0.01,,---,0.90,VWS V14.01,2013-03-24 19:46:00,
2013-03-24 15:51:00,55.8,54.4,29.44,East,84,12.0,27.0,95,0.01,,---,0.90,VWS V14.01,2013-03-24 19:51:00,
2013-03-24 15:57:00,55.8,54.4,29.45,East,96,7.0,27.0,95,0.01,,---,0.90,VWS V14.01,2013-03-24 19:57:00,
2013-03-24 16:02:00,55.8,54.4,29.45,ESE,122,10.0,14.0,95,0.01,,---,0.90,VWS V14.01,2013-03-24 20:02:00,
2013-03-24 16:07:00,55.7,54.3,29.44,East,96,6.0,14.0,95,0.01,,---,0.90,VWS V14.01,2013-03-24 20:07:00,
2013-03-24 16:12:00,55.9,54.5,29.44,ESE,109,13.0,15.0,95,0.02,,---,0.91,VWS V14.01,2013-03-24 20:12:00,
2013-03-24 16:17:00,55.8,54.4,29.44,ENE,74,11.0,15.0,95,0.02,,---,0.91,VWS V14.01,2013-03-24 20:17:00,
2013-03-24 16:22:00,55.8,54.4,29.44,ESE,105,13.0,15.0,95,0.02,,---,0.91,VWS V14.01,2013-03-24 20:22:00,
2013-03-24 16:27:00,55.8,54.4,29.44,East,98,11.0,15.0,95,0.02,,---,0.91,VWS V14.01,2013-03-24 20:27:00,
2013-03-24 16:32:00,55.7,54.3,29.43,ENE,77,9.0,14.0,95,0.01,,---,0.91,VWS V14.01,2013-03-24 20:32:00,
2013-03-24 16:37:00,55.6,54.2,29.44,ENE,58,8.0,14.0,95,0.01,,---,0.91,VWS V14.01,2013-03-24 20:37:00,
2013-03-24 16:42:00,55.7,54.3,29.44,ESE,105,10.0,14.0,95,0.02,,---,0.92,VWS V14.01,2013-03-24 20:42:00,
2013-03-24 16:47:00,55.8,54.4,29.43,East,98,9.0,14.0,95,0.02,,---,0.92,VWS V14.01,2013-03-24 20:47:00,
2013-03-24 16:52:00,55.7,54.3,29.43,East,94,11.0,15.0,95,0.03,,---,0.93,VWS V14.01,2013-03-24 20:52:00,
2013-03-24 16:57:00,55.7,54.3,29.43,East,84,10.0,18.0,95,0.03,,---,0.93,VWS V14.01,2013-03-24 20:57:00,
2013-03-24 17:02:00,55.6,54.5,29.42,East,95,9.0,14.0,96,0.03,,---,0.93,VWS V14.01,2013-03-24 21:02:00,
2013-03-24 17:08:00,55.6,54.5,29.43,East,84,9.0,14.0,96,0.03,,---,0.93,VWS V14.01,2013-03-24 21:08:00,
2013-03-24 17:13:00,55.7,54.6,29.42,East,91,9.0,14.0,96,0.03,,---,0.93,VWS V14.01,2013-03-24 21:13:00,
2013-03-24 17:18:00,56.2,55.1,29.40,ESE,108,19.0,19.0,96,0.04,,---,0.94,VWS V14.01,2013-03-24 21:18:00,
2013-03-24 17:23:00,56.2,55.1,29.40,SE,126,17.0,24.0,96,0.04,,---,0.94,VWS V14.01,2013-03-24 21:23:00,
2013-03-24 17:28:00,56.0,54.9,29.41,North,5,14.0,14.0,96,0.03,,---,0.94,VWS V14.01,2013-03-24 21:28:00,
2013-03-24 17:33:00,56.6,55.5,29.41,NE,38,23.0,23.0,96,0.03,,---,0.94,VWS V14.01,2013-03-24 21:33:00,
2013-03-24 17:38:00,57.2,56.1,29.40,ENE,77,19.0,23.0,96,0.03,,---,0.94,VWS V14.01,2013-03-24 21:38:00,
2013-03-24 17:43:00,57.3,56.2,29.40,East,87,11.0,23.0,96,0.03,,---,0.94,VWS V14.01,2013-03-24 21:43:00,
2013-03-24 17:48:00,57.1,56.0,29.41,North,355,14.0,23.0,96,0.03,,---,0.94,VWS V14.01,2013-03-24 21:48:00,
2013-03-24 17:53:00,57.2,56.1,29.40,ENE,58,13.0,23.0,96,0.03,,---,0.94,VWS V14.01,2013-03-24 21:53:00,
2013-03-24 17:58:00,57.3,56.2,29.41,NNE,15,14.0,14.0,96,0.01,,---,0.94,VWS V14.01,2013-03-24 21:58:00,
2013-03-24 18:03:00,57.4,56.6,29.41,NNE,28,20.0,23.0,97,0.01,,---,0.94,VWS V14.01,2013-03-24 22:03:00,
2013-03-24 18:08:00,57.5,56.7,29.42,North,360,15.0,23.0,97,0.01,,---,0.94,VWS V14.01,2013-03-24 22:08:00,
2013-03-24 18:13:00,55.9,54.2,29.42,North,355,19.0,26.0,94,0.01,,---,0.94,VWS V14.01,2013-03-24 22:13:00,
2013-03-24 18:18:00,54.1,52.7,29.43,North,355,15.0,26.0,95,0.02,,---,0.95,VWS V14.01,2013-03-24 22:18:00,
2013-03-24 18:23:00,53.2,51.8,29.44,North,5,18.0,26.0,95,0.02,,---,0.95,VWS V14.01,2013-03-24 22:23:00,
2013-03-24 18:29:00,52.6,51.5,29.44,North,5,18.0,24.0,96,0.01,,---,0.95,VWS V14.01,2013-03-24 22:29:00,
2013-03-24 18:34:00,52.2,51.1,29.45,North,360,19.0,27.0,96,0.01,,---,0.95,VWS V14.01,2013-03-24 22:34:00,
2013-03-24 18:39:00,51.9,50.8,29.45,North,355,21.0,27.0,96,0.01,,---,0.95,VWS V14.01,2013-03-24 22:39:00,
2013-03-24 18:44:00,51.4,50.3,29.45,North,360,21.0,28.0,96,0.01,,---,0.95,VWS V14.01,2013-03-24 22:44:00,
2013-03-24 18:49:00,50.8,49.7,29.45,North,5,25.0,30.0,96,0.01,,---,0.95,VWS V14.01,2013-03-24 22:49:00,
2013-03-24 18:54:00,50.5,49.4,29.45,North,360,24.0,30.0,96,0.01,,---,0.95,VWS V14.01,2013-03-24 22:54:00,
2013-03-24 18:59:00,50.2,48.8,29.47,NNE,12,23.0,26.0,95,0.01,,---,0.95,VWS V14.01,2013-03-24 22:59:00,
2013-03-24 19:04:00,49.7,48.6,29.47,North,9,25.0,31.0,96,0.01,,---,0.95,VWS V14.01,2013-03-24 23:04:00,
2013-03-24 19:09:00,49.4,48.3,29.47,North,5,25.0,34.0,96,0.01,,---,0.95,VWS V14.01,2013-03-24 23:09:00,
2013-03-24 19:14:00,49.1,47.7,29.47,NNW,344,23.0,34.0,95,0.01,,---,0.95,VWS V14.01,2013-03-24 23:14:00,
2013-03-24 19:19:00,48.9,47.5,29.47,NNE,13,30.0,34.0,95,0.01,,---,0.95,VWS V14.01,2013-03-24 23:19:00,
2013-03-24 19:24:00,48.9,47.5,29.47,NNE,22,24.0,34.0,95,0.01,,---,0.95,VWS V14.01,2013-03-24 23:24:00,
2013-03-24 19:29:00,48.6,47.2,29.48,NNE,26,22.0,27.0,95,0.00,,---,0.95,VWS V14.01,2013-03-24 23:29:00,
2013-03-24 19:34:00,48.5,47.1,29.48,North,355,24.0,30.0,95,0.00,,---,0.95,VWS V14.01,2013-03-24 23:34:00,
2013-03-24 19:39:00,48.3,46.9,29.48,NNE,25,23.0,31.0,95,0.00,,---,0.95,VWS V14.01,2013-03-24 23:39:00,
2013-03-24 19:44:00,48.4,47.0,29.48,NNE,22,19.0,31.0,95,0.00,,---,0.95,VWS V14.01,2013-03-24 23:44:00,
2013-03-24 19:50:00,48.2,46.8,29.48,North,5,18.0,31.0,95,0.00,,---,0.95,VWS V14.01,2013-03-24 23:50:00,
2013-03-24 19:55:00,47.9,46.5,29.49,North,360,23.0,31.0,95,0.00,,---,0.95,VWS V14.01,2013-03-24 23:55:00,
2013-03-24 20:00:00,47.8,46.4,29.50,NNE,12,19.0,23.0,95,0.00,,---,0.95,VWS V14.01,2013-03-25 00:00:00,
2013-03-24 20:05:00,47.6,46.2,29.50,North,360,25.0,28.0,95,0.00,,---,0.95,VWS V14.01,2013-03-25 00:05:00,
2013-03-24 20:10:00,47.5,46.1,29.51,North,355,22.0,28.0,95,0.00,,---,0.95,VWS V14.01,2013-03-25 00:10:00,
2013-03-24 20:15:00,47.4,46.0,29.52,North,360,17.0,28.0,95,0.00,,---,0.95,VWS V14.01,2013-03-25 00:15:00,
2013-03-24 20:20:00,47.2,45.8,29.53,North,5,21.0,28.0,95,0.00,,---,0.95,VWS V14.01,2013-03-25 00:20:00,
2013-03-24 20:25:00,47.1,45.7,29.53,North,11,16.0,28.0,95,0.00,,---,0.95,VWS V14.01,2013-03-25 00:25:00,
2013-03-24 20:30:00,47.0,45.7,29.53,North,11,20.0,25.0,95,0.00,,---,0.95,VWS V14.01,2013-03-25 00:30:00,
2013-03-24 20:35:00,46.8,45.5,29.53,North,9,18.0,25.0,95,0.00,,---,0.95,VWS V14.01,2013-03-25 00:35:00,
2013-03-24 20:40:00,46.7,45.3,29.53,North,355,22.0,25.0,95,0.00,,---,0.95,VWS V14.01,2013-03-25 00:40:00,
2013-03-24 20:45:00,46.5,45.2,29.53,North,355,19.0,25.0,95,0.00,,---,0.95,VWS V14.01,2013-03-25 00:45:00,
2013-03-24 20:50:00,46.4,45.0,29.53,North,5,18.0,25.0,95,0.00,,---,0.95,VWS V14.01,2013-03-25 00:50:00,
2013-03-24 20:55:00,46.3,45.0,29.54,North,5,22.0,25.0,95,0.00,,---,0.95,VWS V14.01,2013-03-25 00:55:00,
2013-03-24 21:00:00,46.1,44.8,29.54,North,9,22.0,24.0,95,0.00,,---,0.95,VWS V14.01,2013-03-25 01:00:00,
2013-03-24 21:05:00,46.0,44.7,29.55,North,9,13.0,24.0,95,0.00,,---,0.95,VWS V14.01,2013-03-25 01:05:00,
2013-03-24 21:11:00,45.6,44.2,29.55,North,5,19.0,24.0,95,0.00,,---,0.95,VWS V14.01,2013-03-25 01:11:00,
2013-03-24 21:16:00,45.1,43.8,29.55,NNE,22,18.0,25.0,95,0.00,,---,0.95,VWS V14.01,2013-03-25 01:16:00,
2013-03-24 21:21:00,45.1,43.8,29.56,NNE,19,20.0,25.0,95,0.00,,---,0.95,VWS V14.01,2013-03-25 01:21:00,
2013-03-24 21:26:00,45.0,43.7,29.56,North,360,16.0,25.0,95,0.00,,---,0.95,VWS V14.01,2013-03-25 01:26:00,
2013-03-24 21:31:00,44.9,43.3,29.56,North,11,14.0,21.0,94,0.00,,---,0.95,VWS V14.01,2013-03-25 01:31:00,
2013-03-24 21:36:00,45.1,43.8,29.57,North,5,12.0,21.0,95,0.00,,---,0.95,VWS V14.01,2013-03-25 01:36:00,
2013-03-24 21:41:00,44.7,43.1,29.57,NNE,28,7.0,21.0,94,0.00,,---,0.95,VWS V14.01,2013-03-25 01:41:00,
2013-03-24 21:46:00,44.7,43.4,29.57,NNE,19,13.0,21.0,95,0.00,,---,0.95,VWS V14.01,2013-03-25 01:46:00,
2013-03-24 21:51:00,44.7,43.4,29.57,NNE,33,14.0,21.0,95,0.00,,---,0.95,VWS V14.01,2013-03-25 01:51:00,
2013-03-24 21:56:00,44.5,43.2,29.57,NNE,26,14.0,21.0,95,0.00,,---,0.95,VWS V14.01,2013-03-25 01:56:00,
2013-03-24 22:02:00,44.4,43.1,29.57,NNE,32,17.0,20.0,95,0.00,,---,0.95,VWS V14.01,2013-03-25 02:02:00,
2013-03-24 22:07:00,44.7,43.4,29.57,NE,36,12.0,20.0,95,0.00,,---,0.95,VWS V14.01,2013-03-25 02:07:00,
2013-03-24 22:12:00,44.5,43.2,29.57,NE,40,14.0,20.0,95,0.00,,---,0.95,VWS V14.01,2013-03-25 02:12:00,
2013-03-24 22:17:00,44.5,43.2,29.58,NNE,20,10.0,20.0,95,0.00,,---,0.95,VWS V14.01,2013-03-25 02:17:00,
2013-03-24 22:22:00,44.5,43.2,29.58,NNE,32,13.0,20.0,95,0.00,,---,0.95,VWS V14.01,2013-03-25 02:22:00,
2013-03-24 22:27:00,44.3,43.0,29.58,NNE,13,13.0,20.0,95,0.00,,---,0.95,VWS V14.01,2013-03-25 02:27:00,
2013-03-24 22:32:00,44.2,42.9,29.58,NE,36,9.0,16.0,95,0.00,,---,0.95,VWS V14.01,2013-03-25 02:32:00,
2013-03-24 22:37:00,44.2,42.9,29.59,NNE,26,6.0,16.0,95,0.00,,---,0.95,VWS V14.01,2013-03-25 02:37:00,
2013-03-24 22:43:00,44.1,42.5,29.59,North,360,13.0,16.0,94,0.00,,---,0.95,VWS V14.01,2013-03-25 02:43:00,
2013-03-24 22:48:00,44.2,42.9,29.59,North,5,6.0,16.0,95,0.00,,---,0.95,VWS V14.01,2013-03-25 02:48:00,
2013-03-24 22:53:00,44.2,42.9,29.60,North,355,7.0,16.0,95,0.00,,---,0.95,VWS V14.01,2013-03-25 02:53:00,
2013-03-24 22:58:00,44.0,42.4,29.60,North,355,9.0,9.0,94,0.00,,---,0.95,VWS V14.01,2013-03-25 02:58:00,
2013-03-24 23:03:00,44.1,42.8,29.60,North,360,11.0,12.0,95,0.00,,---,0.95,VWS V14.01,2013-03-25 03:03:00,
2013-03-24 23:08:00,44.1,42.8,29.60,North,360,12.0,13.0,95,0.00,,---,0.95,VWS V14.01,2013-03-25 03:08:00,
2013-03-24 23:13:00,44.0,42.7,29.60,North,9,7.0,13.0,95,0.00,,---,0.95,VWS V14.01,2013-03-25 03:13:00,
2013-03-24 23:18:00,44.0,42.7,29.60,North,350,10.0,13.0,95,0.00,,---,0.95,VWS V14.01,2013-03-25 03:18:00,
2013-03-24 23:23:00,43.9,42.6,29.60,North,355,9.0,13.0,95,0.00,,---,0.95,VWS V14.01,2013-03-25 03:23:00,
2013-03-24 23:28:00,43.9,42.6,29.60,NNW,345,9.0,10.0,95,0.00,,---,0.95,VWS V14.01,2013-03-25 03:28:00,
2013-03-24 23:33:00,43.7,42.4,29.60,North,5,12.0,12.0,95,0.00,,---,0.95,VWS V14.01,2013-03-25 03:33:00,
2013-03-24 23:38:00,43.7,42.4,29.60,North,5,9.0,12.0,95,0.00,,---,0.95,VWS V14.01,2013-03-25 03:38:00,
2013-03-24 23:43:00,43.6,42.3,29.60,North,5,7.0,12.0,95,0.00,,---,0.95,VWS V14.01,2013-03-25 03:43:00,
2013-03-24 23:48:00,43.6,42.3,29.60,North,9,7.0,12.0,95,0.00,,---,0.95,VWS V14.01,2013-03-25 03:48:00,
2013-03-24 23:53:00,43.5,42.2,29.60,North,5,7.0,12.0,95,0.00,,---,0.95,VWS V14.01,2013-03-25 03:53:00,
2013-03-24 23:58:00,43.4,42.1,29.60,North,360,9.0,10.0,95,0.00,,---,0.00,VWS V14.01,2013-03-25 03:58:00,